createdAt,value
2022-10-25T00:00:16.337Z,30.234
2022-10-25T00:05:16.372Z,30.232
2022-10-25T00:10:16.377Z,30.236
2022-10-25T00:15:16.628Z,30.234
2022-10-25T00:20:16.403Z,30.229
2022-10-25T00:25:16.473Z,30.232
2022-10-25T00:30:16.447Z,30.234
2022-10-25T00:35:16.471Z,30.237
2022-10-25T00:40:16.534Z,30.232
2022-10-25T00:45:16.556Z,30.233
2022-10-25T00:50:16.608Z,30.234
2022-10-25T00:55:16.607Z,30.239
2022-10-25T01:00:16.475Z,30.235
2022-10-25T01:05:16.658Z,30.234
2022-10-25T01:10:16.482Z,30.235
2022-10-25T01:15:16.561Z,30.241
2022-10-25T01:20:16.537Z,30.240
2022-10-25T01:25:16.535Z,30.240
2022-10-25T01:30:16.548Z,30.239
2022-10-25T01:35:16.593Z,30.241
2022-10-25T01:40:16.569Z,30.245
2022-10-25T01:45:16.652Z,30.248
2022-10-25T01:50:16.601Z,30.247
2022-10-25T01:55:16.478Z,30.245
2022-10-25T02:00:16.700Z,30.247
2022-10-25T02:05:16.577Z,30.247
2022-10-25T02:10:16.626Z,30.242
2022-10-25T02:15:16.669Z,30.241
2022-10-25T02:20:16.628Z,30.238
2022-10-25T02:25:16.674Z,30.239
2022-10-25T02:30:16.639Z,30.236
2022-10-25T02:35:16.681Z,30.235
2022-10-25T02:40:16.695Z,30.234
2022-10-25T02:45:16.694Z,30.231
2022-10-25T02:50:16.664Z,30.235
2022-10-25T02:55:16.879Z,30.235
2022-10-25T03:00:16.831Z,30.234
2022-10-25T03:05:16.782Z,30.232
2022-10-25T03:10:16.781Z,30.233
2022-10-25T03:15:16.771Z,30.237
2022-10-25T03:20:16.810Z,30.240
2022-10-25T03:25:16.975Z,30.237
2022-10-25T03:30:16.756Z,30.241
2022-10-25T03:35:16.897Z,30.243
2022-10-25T03:40:16.877Z,30.240
2022-10-25T03:45:16.876Z,30.241
2022-10-25T03:50:16.800Z,30.237
2022-10-25T03:55:16.931Z,30.233
2022-10-25T04:00:15.843Z,30.236
2022-10-25T04:05:15.861Z,30.239
2022-10-25T04:10:15.877Z,30.238
2022-10-25T04:15:16.015Z,30.239
2022-10-25T04:20:15.864Z,30.237
2022-10-25T04:25:15.879Z,30.238
2022-10-25T04:30:15.941Z,30.235
2022-10-25T04:35:15.950Z,30.232
2022-10-25T04:40:15.981Z,30.235
2022-10-25T04:45:16.045Z,30.228
2022-10-25T04:50:16.078Z,30.231
2022-10-25T04:55:16.230Z,30.231
2022-10-25T05:00:16.060Z,30.234
2022-10-25T05:05:15.937Z,30.235
2022-10-25T05:10:16.068Z,30.232
2022-10-25T05:15:15.983Z,30.231
2022-10-25T05:20:15.992Z,30.232
2022-10-25T05:25:16.051Z,30.229
2022-10-25T05:30:16.100Z,30.228
2022-10-25T05:35:16.100Z,30.225
2022-10-25T05:40:16.038Z,30.223
2022-10-25T05:45:16.027Z,30.222
2022-10-25T05:50:16.185Z,30.222
2022-10-25T05:55:16.074Z,30.219
2022-10-25T06:00:16.181Z,30.217
2022-10-25T06:05:16.086Z,30.217
2022-10-25T06:10:16.162Z,30.212
2022-10-25T06:15:16.258Z,30.212
2022-10-25T06:20:16.201Z,30.214
2022-10-25T06:25:16.235Z,30.217
2022-10-25T06:30:16.105Z,30.216
2022-10-25T06:35:16.091Z,30.220
2022-10-25T06:40:16.169Z,30.220
2022-10-25T06:45:16.263Z,30.219
2022-10-25T06:50:16.199Z,30.220
2022-10-25T06:55:16.242Z,30.216
2022-10-25T07:00:16.290Z,30.219
2022-10-25T07:05:16.247Z,30.218
2022-10-25T07:10:16.249Z,30.221
2022-10-25T07:15:16.178Z,30.217
2022-10-25T07:20:16.358Z,30.216
2022-10-25T07:25:16.231Z,30.214
2022-10-25T07:30:16.207Z,30.209
2022-10-25T07:35:16.472Z,30.209
2022-10-25T07:40:16.260Z,30.208
2022-10-25T07:45:20.290Z,30.208
2022-10-25T07:50:16.309Z,30.209
2022-10-25T07:55:16.365Z,30.209
2022-10-25T08:00:16.383Z,30.210
2022-10-25T08:05:16.368Z,30.209
2022-10-25T08:10:16.690Z,30.211
2022-10-25T08:15:16.402Z,30.210
2022-10-25T08:20:16.324Z,30.212
2022-10-25T08:25:16.397Z,30.213
2022-10-25T08:30:16.484Z,30.214
2022-10-25T08:35:16.673Z,30.212
2022-10-25T08:40:16.590Z,30.211
2022-10-25T08:45:16.440Z,30.208
2022-10-25T08:50:16.366Z,30.205
2022-10-25T08:55:16.380Z,30.206
2022-10-25T09:00:16.436Z,30.206
2022-10-25T09:05:16.408Z,30.208
2022-10-25T09:10:16.629Z,30.205
2022-10-25T09:15:16.443Z,30.207
2022-10-25T09:20:16.495Z,30.208
2022-10-25T09:25:16.459Z,30.211
2022-10-25T09:30:16.538Z,30.210
2022-10-25T09:35:16.542Z,30.210
2022-10-25T09:40:16.699Z,30.207
2022-10-25T09:45:16.546Z,30.207
2022-10-25T09:50:16.673Z,30.209
2022-10-25T09:55:16.434Z,30.208
2022-10-25T10:00:16.553Z,30.209
2022-10-25T10:05:16.632Z,30.211
2022-10-25T10:10:16.705Z,30.210
2022-10-25T10:15:16.558Z,30.209
2022-10-25T10:20:16.844Z,30.208
2022-10-25T10:25:16.659Z,30.209
2022-10-25T10:30:16.571Z,30.209
2022-10-25T10:35:16.659Z,30.203
2022-10-25T10:40:16.654Z,30.205
2022-10-25T10:45:16.641Z,30.206
2022-10-25T10:50:16.703Z,30.207
2022-10-25T10:55:16.822Z,30.211
2022-10-25T11:00:16.768Z,30.212
2022-10-25T11:05:16.751Z,30.216
2022-10-25T11:10:16.659Z,30.216
2022-10-25T11:15:16.836Z,30.218
2022-10-25T11:20:16.743Z,30.214
2022-10-25T11:25:16.733Z,30.216
2022-10-25T11:30:16.952Z,30.218
2022-10-25T11:35:16.785Z,30.222
2022-10-25T11:40:16.706Z,30.221
2022-10-25T11:45:16.768Z,30.224
2022-10-25T11:50:16.846Z,30.227
2022-10-25T11:55:16.909Z,30.224
2022-10-25T12:00:16.870Z,30.227
2022-10-25T12:05:16.819Z,30.227
2022-10-25T12:10:16.836Z,30.228
2022-10-25T12:15:16.788Z,30.228
2022-10-25T12:20:16.748Z,30.228
2022-10-25T12:25:16.769Z,30.229
2022-10-25T12:30:16.985Z,30.228
2022-10-25T12:35:16.929Z,30.231
2022-10-25T12:40:16.974Z,30.232
2022-10-25T12:45:16.847Z,30.232
2022-10-25T12:50:23.421Z,30.233
2022-10-25T12:55:17.025Z,30.231
2022-10-25T13:00:16.937Z,30.231
2022-10-25T13:05:16.956Z,30.234
2022-10-25T13:10:17.012Z,30.232
2022-10-25T13:15:16.986Z,30.234
2022-10-25T13:20:22.474Z,30.234
2022-10-25T13:25:16.955Z,30.231
2022-10-25T13:30:23.555Z,30.232
2022-10-25T13:35:16.996Z,30.232
2022-10-25T13:40:23.498Z,30.230
2022-10-25T13:45:17.021Z,30.232
2022-10-25T13:50:17.252Z,30.231
2022-10-25T13:55:16.995Z,30.229
2022-10-25T14:00:17.058Z,30.233
2022-10-25T14:05:17.009Z,30.234
2022-10-25T14:10:17.068Z,30.232
2022-10-25T14:15:17.165Z,30.235
2022-10-25T14:20:17.080Z,30.233
2022-10-25T14:25:17.031Z,30.232
2022-10-25T14:30:22.545Z,30.229
2022-10-25T14:35:17.050Z,30.229
2022-10-25T14:40:17.232Z,30.226
2022-10-25T14:45:17.114Z,30.227
2022-10-25T14:50:17.288Z,30.227
2022-10-25T14:55:17.240Z,30.227
2022-10-25T15:00:17.191Z,30.226
2022-10-25T15:05:17.369Z,30.224
2022-10-25T15:10:17.103Z,30.226
2022-10-25T15:15:17.204Z,30.224
2022-10-25T15:20:17.175Z,30.223
2022-10-25T15:25:17.345Z,30.222
2022-10-25T15:30:17.195Z,30.220
2022-10-25T15:35:17.277Z,30.222
2022-10-25T15:40:17.222Z,30.220
2022-10-25T15:45:18.040Z,30.220
2022-10-25T15:50:17.223Z,30.219
2022-10-25T15:55:17.391Z,30.220
2022-10-25T16:00:17.261Z,30.216
2022-10-25T16:05:17.387Z,30.212
2022-10-25T16:10:17.341Z,30.210
2022-10-25T16:15:17.331Z,30.209
2022-10-25T16:20:17.385Z,30.210
2022-10-25T16:25:17.337Z,30.208
2022-10-25T16:30:17.313Z,30.204
2022-10-25T16:35:17.596Z,30.203
2022-10-25T16:40:17.449Z,30.199
2022-10-25T16:45:17.456Z,30.198
2022-10-25T16:50:15.386Z,30.196
2022-10-25T16:55:15.421Z,30.196
2022-10-25T17:00:15.346Z,30.193
2022-10-25T17:05:15.480Z,30.192
2022-10-25T17:10:15.427Z,30.193
2022-10-25T17:15:15.794Z,30.186
2022-10-25T17:20:15.477Z,30.182
2022-10-25T17:25:15.417Z,30.182
2022-10-25T17:30:15.506Z,30.180
2022-10-25T17:35:15.447Z,30.180
2022-10-25T17:40:15.783Z,30.175
2022-10-25T17:45:15.535Z,30.172
2022-10-25T17:50:15.544Z,30.172
2022-10-25T17:55:15.431Z,30.170
2022-10-25T18:00:15.535Z,30.168
2022-10-25T18:05:20.251Z,30.171
2022-10-25T18:10:15.678Z,30.172
2022-10-25T18:15:15.729Z,30.172
2022-10-25T18:20:15.729Z,30.174
2022-10-25T18:25:15.602Z,30.171
2022-10-25T18:30:15.637Z,30.170
2022-10-25T18:35:15.713Z,30.171
2022-10-25T18:40:15.607Z,30.169
2022-10-25T18:45:15.772Z,30.167
2022-10-25T18:50:15.579Z,30.166
2022-10-25T18:55:15.720Z,30.162
2022-10-25T19:00:15.713Z,30.159
2022-10-25T19:05:15.636Z,30.159
2022-10-25T19:10:15.634Z,30.158
2022-10-25T19:15:15.703Z,30.151
2022-10-25T19:20:15.733Z,30.156
2022-10-25T19:25:18.127Z,30.154
2022-10-25T19:30:15.657Z,30.154
2022-10-25T19:35:15.962Z,30.153
2022-10-25T19:40:15.703Z,30.153
2022-10-25T19:45:15.827Z,30.152
2022-10-25T19:50:15.798Z,30.151
2022-10-25T19:55:15.969Z,30.150
2022-10-25T20:00:15.773Z,30.149
2022-10-25T20:05:15.732Z,30.149
2022-10-25T20:10:15.812Z,30.148
2022-10-25T20:15:15.774Z,30.146
2022-10-25T20:20:15.783Z,30.145
2022-10-25T20:25:21.333Z,30.144
2022-10-25T20:30:15.769Z,30.144
2022-10-25T20:35:15.785Z,30.144
2022-10-25T20:40:15.844Z,30.146
2022-10-25T20:45:15.860Z,30.145
2022-10-25T20:50:15.879Z,30.144
2022-10-25T20:55:15.947Z,30.146
2022-10-25T21:00:19.651Z,30.146
2022-10-25T21:05:15.961Z,30.138
2022-10-25T21:10:15.874Z,30.137
2022-10-25T21:15:15.894Z,30.140
2022-10-25T21:20:15.935Z,30.139
2022-10-25T21:25:15.920Z,30.137
2022-10-25T21:30:15.962Z,30.130
2022-10-25T21:35:16.000Z,30.132
2022-10-25T21:40:16.233Z,30.130
2022-10-25T21:45:15.989Z,30.132
2022-10-25T21:50:15.935Z,30.132
2022-10-25T21:55:15.934Z,30.131
2022-10-25T22:00:16.055Z,30.134
2022-10-25T22:05:15.961Z,30.136
2022-10-25T22:10:16.052Z,30.136
2022-10-25T22:15:16.049Z,30.136
2022-10-25T22:20:16.050Z,30.137
2022-10-25T22:25:16.093Z,30.135
2022-10-25T22:30:16.210Z,30.134
2022-10-25T22:35:16.325Z,30.131
2022-10-25T22:40:16.117Z,30.131
2022-10-25T22:45:16.152Z,30.129
2022-10-25T22:50:16.122Z,30.128
2022-10-25T22:55:16.118Z,30.126
2022-10-25T23:00:16.155Z,30.129
2022-10-25T23:05:16.146Z,30.127
2022-10-25T23:10:16.180Z,30.128
2022-10-25T23:15:16.242Z,30.128
2022-10-25T23:20:16.167Z,30.131
2022-10-25T23:25:16.193Z,30.129
2022-10-25T23:30:16.149Z,30.128
2022-10-25T23:35:16.283Z,30.127
2022-10-25T23:40:16.185Z,30.128
2022-10-25T23:45:16.181Z,30.125
2022-10-25T23:50:16.205Z,30.127
2022-10-25T23:55:16.180Z,30.126
